sensor_id;sensor_type;location;lat;lon;timestamp;P1;durP1;ratioP1;P2;durP2;ratioP2
62696;SDS011;48761;42.680;23.312;2023-03-01T00:01:26;6.97;;;4.50;;
62696;SDS011;48761;42.680;23.312;2023-03-01T00:03:54;8.48;;;5.55;;
62696;SDS011;48761;42.680;23.312;2023-03-01T00:06:21;8.85;;;5.57;;
62696;SDS011;48761;42.680;23.312;2023-03-01T00:08:48;8.50;;;5.50;;
62696;SDS011;48761;42.680;23.312;2023-03-01T00:11:25;8.30;;;5.55;;
62696;SDS011;48761;42.680;23.312;2023-03-01T00:13:58;10.63;;;6.03;;
62696;SDS011;48761;42.680;23.312;2023-03-01T00:16:29;7.10;;;5.20;;
62696;SDS011;48761;42.680;23.312;2023-03-01T00:19:03;8.45;;;5.63;;
62696;SDS011;48761;42.680;23.312;2023-03-01T00:21:29;8.23;;;5.63;;
62696;SDS011;48761;42.680;23.312;2023-03-01T00:23:55;7.60;;;5.07;;
62696;SDS011;48761;42.680;23.312;2023-03-01T00:26:24;7.72;;;5.82;;
62696;SDS011;48761;42.680;23.312;2023-03-01T00:28:57;7.03;;;5.03;;
62696;SDS011;48761;42.680;23.312;2023-03-01T00:31:47;7.13;;;5.22;;
62696;SDS011;48761;42.680;23.312;2023-03-01T00:34:13;5.60;;;4.50;;
62696;SDS011;48761;42.680;23.312;2023-03-01T00:36:39;6.90;;;5.07;;
62696;SDS011;48761;42.680;23.312;2023-03-01T00:39:05;7.35;;;4.78;;
62696;SDS011;48761;42.680;23.312;2023-03-01T00:41:35;5.63;;;4.15;;
62696;SDS011;48761;42.680;23.312;2023-03-01T00:44:01;5.97;;;4.10;;
62696;SDS011;48761;42.680;23.312;2023-03-01T00:46:28;5.28;;;3.88;;
62696;SDS011;48761;42.680;23.312;2023-03-01T00:48:54;6.18;;;3.63;;
62696;SDS011;48761;42.680;23.312;2023-03-01T00:51:21;6.20;;;4.43;;
62696;SDS011;48761;42.680;23.312;2023-03-01T00:53:52;6.00;;;4.00;;
62696;SDS011;48761;42.680;23.312;2023-03-01T00:56:19;6.15;;;3.55;;
62696;SDS011;48761;42.680;23.312;2023-03-01T00:58:46;5.07;;;3.67;;
62696;SDS011;48761;42.680;23.312;2023-03-01T01:01:19;7.75;;;4.22;;
62696;SDS011;48761;42.680;23.312;2023-03-01T01:03:49;5.03;;;4.00;;
62696;SDS011;48761;42.680;23.312;2023-03-01T01:06:24;5.32;;;3.90;;
62696;SDS011;48761;42.680;23.312;2023-03-01T01:08:55;4.07;;;3.20;;
62696;SDS011;48761;42.680;23.312;2023-03-01T01:11:28;5.47;;;4.00;;
62696;SDS011;48761;42.680;23.312;2023-03-01T01:13:55;8.23;;;4.05;;
62696;SDS011;48761;42.680;23.312;2023-03-01T01:16:23;5.15;;;3.53;;
62696;SDS011;48761;42.680;23.312;2023-03-01T01:18:51;5.60;;;3.30;;
62696;SDS011;48761;42.680;23.312;2023-03-01T01:21:19;4.28;;;3.33;;
62696;SDS011;48761;42.680;23.312;2023-03-01T01:23:48;4.70;;;3.22;;
62696;SDS011;48761;42.680;23.312;2023-03-01T01:26:16;4.13;;;3.15;;
62696;SDS011;48761;42.680;23.312;2023-03-01T01:28:46;4.13;;;2.97;;
62696;SDS011;48761;42.680;23.312;2023-03-01T01:31:13;3.58;;;2.72;;
62696;SDS011;48761;42.680;23.312;2023-03-01T01:33:39;3.85;;;3.13;;
62696;SDS011;48761;42.680;23.312;2023-03-01T01:36:05;6.43;;;3.08;;
62696;SDS011;48761;42.680;23.312;2023-03-01T01:38:33;4.00;;;2.80;;
62696;SDS011;48761;42.680;23.312;2023-03-01T01:41:02;3.70;;;2.65;;
62696;SDS011;48761;42.680;23.312;2023-03-01T01:43:29;3.10;;;2.45;;
62696;SDS011;48761;42.680;23.312;2023-03-01T01:46:12;2.90;;;2.38;;
62696;SDS011;48761;42.680;23.312;2023-03-01T01:48:59;2.78;;;2.25;;
62696;SDS011;48761;42.680;23.312;2023-03-01T01:51:28;3.05;;;2.28;;
62696;SDS011;48761;42.680;23.312;2023-03-01T01:53:59;2.95;;;2.10;;
62696;SDS011;48761;42.680;23.312;2023-03-01T01:56:26;2.78;;;2.15;;
62696;SDS011;48761;42.680;23.312;2023-03-01T01:58:54;3.15;;;2.40;;
62696;SDS011;48761;42.680;23.312;2023-03-01T02:01:21;2.67;;;2.35;;
62696;SDS011;48761;42.680;23.312;2023-03-01T02:03:47;2.58;;;2.30;;
62696;SDS011;48761;42.680;23.312;2023-03-01T02:06:19;3.22;;;2.35;;
62696;SDS011;48761;42.680;23.312;2023-03-01T02:08:46;2.47;;;1.90;;
62696;SDS011;48761;42.680;23.312;2023-03-01T02:11:14;3.15;;;2.38;;
62696;SDS011;48761;42.680;23.312;2023-03-01T02:13:40;2.75;;;2.45;;
62696;SDS011;48761;42.680;23.312;2023-03-01T02:16:08;2.70;;;2.20;;
62696;SDS011;48761;42.680;23.312;2023-03-01T02:18:36;2.95;;;2.42;;
62696;SDS011;48761;42.680;23.312;2023-03-01T02:21:08;2.78;;;2.00;;
62696;SDS011;48761;42.680;23.312;2023-03-01T02:24:01;4.47;;;2.33;;
62696;SDS011;48761;42.680;23.312;2023-03-01T02:26:40;2.55;;;2.33;;
62696;SDS011;48761;42.680;23.312;2023-03-01T02:29:12;2.40;;;2.20;;
62696;SDS011;48761;42.680;23.312;2023-03-01T02:31:38;3.50;;;2.90;;
62696;SDS011;48761;42.680;23.312;2023-03-01T02:34:05;3.72;;;2.58;;
62696;SDS011;48761;42.680;23.312;2023-03-01T02:36:36;3.45;;;2.80;;
62696;SDS011;48761;42.680;23.312;2023-03-01T02:39:05;3.25;;;2.50;;
62696;SDS011;48761;42.680;23.312;2023-03-01T02:41:35;3.63;;;2.83;;
62696;SDS011;48761;42.680;23.312;2023-03-01T02:44:03;3.25;;;2.72;;
62696;SDS011;48761;42.680;23.312;2023-03-01T02:46:31;3.17;;;2.88;;
62696;SDS011;48761;42.680;23.312;2023-03-01T02:48:57;4.13;;;3.00;;
62696;SDS011;48761;42.680;23.312;2023-03-01T02:51:31;3.50;;;2.97;;
62696;SDS011;48761;42.680;23.312;2023-03-01T02:57:12;6.72;;;3.42;;
62696;SDS011;48761;42.680;23.312;2023-03-01T02:59:39;3.42;;;3.05;;
62696;SDS011;48761;42.680;23.312;2023-03-01T03:02:06;3.83;;;3.10;;
62696;SDS011;48761;42.680;23.312;2023-03-01T03:04:33;5.60;;;3.20;;
62696;SDS011;48761;42.680;23.312;2023-03-01T03:06:59;4.07;;;2.95;;
62696;SDS011;48761;42.680;23.312;2023-03-01T03:09:25;5.30;;;3.70;;
62696;SDS011;48761;42.680;23.312;2023-03-01T03:11:51;3.85;;;3.13;;
62696;SDS011;48761;42.680;23.312;2023-03-01T03:14:17;3.75;;;3.15;;
62696;SDS011;48761;42.680;23.312;2023-03-01T03:16:47;5.10;;;3.65;;
62696;SDS011;48761;42.680;23.312;2023-03-01T03:19:14;5.37;;;3.63;;
62696;SDS011;48761;42.680;23.312;2023-03-01T03:21:41;6.53;;;4.22;;
62696;SDS011;48761;42.680;23.312;2023-03-01T03:24:07;5.57;;;4.32;;
62696;SDS011;48761;42.680;23.312;2023-03-01T03:26:33;5.18;;;3.80;;
62696;SDS011;48761;42.680;23.312;2023-03-01T03:29:00;5.70;;;4.22;;
62696;SDS011;48761;42.680;23.312;2023-03-01T03:31:26;5.93;;;4.57;;
62696;SDS011;48761;42.680;23.312;2023-03-01T03:33:52;5.43;;;4.20;;
62696;SDS011;48761;42.680;23.312;2023-03-01T03:36:19;5.88;;;3.67;;
62696;SDS011;48761;42.680;23.312;2023-03-01T03:38:46;5.38;;;4.22;;
62696;SDS011;48761;42.680;23.312;2023-03-01T03:41:12;4.65;;;3.33;;
62696;SDS011;48761;42.680;23.312;2023-03-01T03:43:39;6.97;;;4.20;;
62696;SDS011;48761;42.680;23.312;2023-03-01T03:46:06;8.05;;;4.50;;
62696;SDS011;48761;42.680;23.312;2023-03-01T03:48:37;6.13;;;4.05;;
62696;SDS011;48761;42.680;23.312;2023-03-01T03:51:09;7.13;;;4.78;;
62696;SDS011;48761;42.680;23.312;2023-03-01T03:53:36;6.90;;;4.57;;
62696;SDS011;48761;42.680;23.312;2023-03-01T03:56:02;5.85;;;4.35;;
62696;SDS011;48761;42.680;23.312;2023-03-01T03:58:28;7.20;;;4.38;;
62696;SDS011;48761;42.680;23.312;2023-03-01T04:00:55;6.03;;;4.55;;
62696;SDS011;48761;42.680;23.312;2023-03-01T04:03:22;6.80;;;4.55;;
62696;SDS011;48761;42.680;23.312;2023-03-01T04:05:50;7.32;;;4.80;;
62696;SDS011;48761;42.680;23.312;2023-03-01T04:08:17;5.82;;;4.25;;
62696;SDS011;48761;42.680;23.312;2023-03-01T04:10:45;4.28;;;3.53;;
62696;SDS011;48761;42.680;23.312;2023-03-01T04:13:13;5.32;;;3.60;;
62696;SDS011;48761;42.680;23.312;2023-03-01T04:15:42;4.70;;;3.42;;
62696;SDS011;48761;42.680;23.312;2023-03-01T04:18:09;4.90;;;3.50;;
62696;SDS011;48761;42.680;23.312;2023-03-01T04:20:38;5.15;;;3.40;;
62696;SDS011;48761;42.680;23.312;2023-03-01T04:23:06;5.28;;;3.80;;
62696;SDS011;48761;42.680;23.312;2023-03-01T04:25:34;7.72;;;3.80;;
62696;SDS011;48761;42.680;23.312;2023-03-01T04:28:00;5.57;;;3.75;;
62696;SDS011;48761;42.680;23.312;2023-03-01T04:30:26;5.10;;;3.45;;
62696;SDS011;48761;42.680;23.312;2023-03-01T04:32:52;7.15;;;3.53;;
62696;SDS011;48761;42.680;23.312;2023-03-01T04:35:18;4.85;;;3.55;;
62696;SDS011;48761;42.680;23.312;2023-03-01T04:37:44;6.40;;;4.15;;
62696;SDS011;48761;42.680;23.312;2023-03-01T04:40:10;5.32;;;3.55;;
62696;SDS011;48761;42.680;23.312;2023-03-01T04:42:36;5.82;;;4.20;;
62696;SDS011;48761;42.680;23.312;2023-03-01T04:45:03;5.78;;;3.60;;
62696;SDS011;48761;42.680;23.312;2023-03-01T04:47:29;5.63;;;3.70;;
62696;SDS011;48761;42.680;23.312;2023-03-01T04:49:55;6.50;;;3.83;;
62696;SDS011;48761;42.680;23.312;2023-03-01T04:52:21;6.93;;;4.10;;
62696;SDS011;48761;42.680;23.312;2023-03-01T04:54:47;4.25;;;2.95;;
62696;SDS011;48761;42.680;23.312;2023-03-01T04:57:13;4.88;;;3.38;;
62696;SDS011;48761;42.680;23.312;2023-03-01T04:59:39;5.50;;;4.15;;
62696;SDS011;48761;42.680;23.312;2023-03-01T05:02:05;5.35;;;3.47;;
62696;SDS011;48761;42.680;23.312;2023-03-01T05:04:32;5.13;;;4.00;;
62696;SDS011;48761;42.680;23.312;2023-03-01T05:06:58;5.18;;;3.40;;
62696;SDS011;48761;42.680;23.312;2023-03-01T05:09:24;5.35;;;3.92;;
62696;SDS011;48761;42.680;23.312;2023-03-01T05:11:49;6.68;;;3.95;;
62696;SDS011;48761;42.680;23.312;2023-03-01T05:14:15;4.63;;;3.22;;
62696;SDS011;48761;42.680;23.312;2023-03-01T05:16:41;9.52;;;4.18;;
62696;SDS011;48761;42.680;23.312;2023-03-01T05:19:08;5.55;;;4.05;;
62696;SDS011;48761;42.680;23.312;2023-03-01T05:21:34;5.88;;;4.07;;
62696;SDS011;48761;42.680;23.312;2023-03-01T05:24:00;6.40;;;3.92;;
62696;SDS011;48761;42.680;23.312;2023-03-01T05:26:26;7.25;;;3.90;;
62696;SDS011;48761;42.680;23.312;2023-03-01T05:28:55;8.60;;;4.00;;
62696;SDS011;48761;42.680;23.312;2023-03-01T05:31:21;5.38;;;4.05;;
62696;SDS011;48761;42.680;23.312;2023-03-01T05:33:47;6.25;;;4.18;;
62696;SDS011;48761;42.680;23.312;2023-03-01T05:36:13;4.93;;;3.75;;
62696;SDS011;48761;42.680;23.312;2023-03-01T05:38:40;9.43;;;4.32;;
62696;SDS011;48761;42.680;23.312;2023-03-01T05:41:12;10.73;;;3.90;;
62696;SDS011;48761;42.680;23.312;2023-03-01T05:43:40;5.95;;;4.22;;
62696;SDS011;48761;42.680;23.312;2023-03-01T05:46:06;5.68;;;3.70;;
62696;SDS011;48761;42.680;23.312;2023-03-01T05:48:32;6.65;;;4.03;;
62696;SDS011;48761;42.680;23.312;2023-03-01T05:50:59;5.80;;;3.25;;
62696;SDS011;48761;42.680;23.312;2023-03-01T05:53:26;6.80;;;4.20;;
62696;SDS011;48761;42.680;23.312;2023-03-01T05:56:09;7.63;;;4.03;;
62696;SDS011;48761;42.680;23.312;2023-03-01T05:58:35;8.27;;;4.45;;
62696;SDS011;48761;42.680;23.312;2023-03-01T06:01:03;6.60;;;4.43;;
62696;SDS011;48761;42.680;23.312;2023-03-01T06:03:32;7.70;;;4.55;;
62696;SDS011;48761;42.680;23.312;2023-03-01T06:05:58;8.27;;;5.57;;
62696;SDS011;48761;42.680;23.312;2023-03-01T06:08:24;10.55;;;4.65;;
62696;SDS011;48761;42.680;23.312;2023-03-01T06:10:50;10.45;;;5.35;;
62696;SDS011;48761;42.680;23.312;2023-03-01T06:13:17;7.10;;;4.85;;
62696;SDS011;48761;42.680;23.312;2023-03-01T06:15:45;8.13;;;5.20;;
62696;SDS011;48761;42.680;23.312;2023-03-01T06:18:11;9.60;;;4.75;;
62696;SDS011;48761;42.680;23.312;2023-03-01T06:20:40;9.45;;;5.45;;
62696;SDS011;48761;42.680;23.312;2023-03-01T06:23:09;7.90;;;5.07;;
62696;SDS011;48761;42.680;23.312;2023-03-01T06:25:35;6.65;;;4.47;;
62696;SDS011;48761;42.680;23.312;2023-03-01T06:28:01;10.10;;;5.30;;
62696;SDS011;48761;42.680;23.312;2023-03-01T06:30:27;8.40;;;5.25;;
62696;SDS011;48761;42.680;23.312;2023-03-01T06:32:53;7.65;;;4.93;;
62696;SDS011;48761;42.680;23.312;2023-03-01T06:35:19;10.23;;;5.85;;
62696;SDS011;48761;42.680;23.312;2023-03-01T06:37:46;7.82;;;5.55;;
62696;SDS011;48761;42.680;23.312;2023-03-01T06:40:14;8.82;;;5.40;;
62696;SDS011;48761;42.680;23.312;2023-03-01T06:42:41;7.47;;;4.80;;
62696;SDS011;48761;42.680;23.312;2023-03-01T06:45:09;7.88;;;5.47;;
62696;SDS011;48761;42.680;23.312;2023-03-01T06:47:36;7.78;;;5.50;;
62696;SDS011;48761;42.680;23.312;2023-03-01T06:50:02;7.30;;;4.72;;
62696;SDS011;48761;42.680;23.312;2023-03-01T06:52:29;6.93;;;4.45;;
62696;SDS011;48761;42.680;23.312;2023-03-01T06:54:55;9.23;;;4.68;;
62696;SDS011;48761;42.680;23.312;2023-03-01T06:57:21;5.88;;;4.30;;
62696;SDS011;48761;42.680;23.312;2023-03-01T06:59:47;12.30;;;5.20;;
62696;SDS011;48761;42.680;23.312;2023-03-01T07:02:13;7.45;;;4.93;;
62696;SDS011;48761;42.680;23.312;2023-03-01T07:04:40;11.65;;;5.35;;
62696;SDS011;48761;42.680;23.312;2023-03-01T07:07:07;9.60;;;5.13;;
62696;SDS011;48761;42.680;23.312;2023-03-01T07:09:33;7.43;;;5.10;;
62696;SDS011;48761;42.680;23.312;2023-03-01T07:11:59;9.10;;;3.92;;
62696;SDS011;48761;42.680;23.312;2023-03-01T07:14:25;7.28;;;3.97;;
62696;SDS011;48761;42.680;23.312;2023-03-01T07:16:52;11.05;;;4.68;;
62696;SDS011;48761;42.680;23.312;2023-03-01T07:19:18;9.35;;;4.70;;
62696;SDS011;48761;42.680;23.312;2023-03-01T07:21:44;9.15;;;5.57;;
62696;SDS011;48761;42.680;23.312;2023-03-01T07:24:10;8.98;;;4.03;;
62696;SDS011;48761;42.680;23.312;2023-03-01T07:26:36;8.63;;;4.60;;
62696;SDS011;48761;42.680;23.312;2023-03-01T07:29:03;11.85;;;3.63;;
62696;SDS011;48761;42.680;23.312;2023-03-01T07:31:31;10.68;;;4.97;;
62696;SDS011;48761;42.680;23.312;2023-03-01T07:33:57;4.82;;;3.63;;
62696;SDS011;48761;42.680;23.312;2023-03-01T07:36:24;12.07;;;4.22;;
62696;SDS011;48761;42.680;23.312;2023-03-01T07:38:50;8.07;;;4.47;;
62696;SDS011;48761;42.680;23.312;2023-03-01T07:41:17;8.35;;;3.95;;
62696;SDS011;48761;42.680;23.312;2023-03-01T07:43:43;7.40;;;4.28;;
62696;SDS011;48761;42.680;23.312;2023-03-01T07:46:09;7.70;;;4.43;;
62696;SDS011;48761;42.680;23.312;2023-03-01T07:48:35;9.73;;;4.72;;
62696;SDS011;48761;42.680;23.312;2023-03-01T07:51:02;7.72;;;4.13;;
62696;SDS011;48761;42.680;23.312;2023-03-01T07:53:30;6.60;;;4.03;;
62696;SDS011;48761;42.680;23.312;2023-03-01T07:56:04;6.60;;;4.25;;
62696;SDS011;48761;42.680;23.312;2023-03-01T07:58:38;7.03;;;4.25;;
62696;SDS011;48761;42.680;23.312;2023-03-01T08:01:06;7.63;;;3.72;;
62696;SDS011;48761;42.680;23.312;2023-03-01T08:03:34;8.50;;;3.85;;
62696;SDS011;48761;42.680;23.312;2023-03-01T08:06:02;8.18;;;3.83;;
62696;SDS011;48761;42.680;23.312;2023-03-01T08:08:30;5.00;;;3.25;;
62696;SDS011;48761;42.680;23.312;2023-03-01T08:10:59;7.88;;;3.83;;
62696;SDS011;48761;42.680;23.312;2023-03-01T08:13:26;7.97;;;4.60;;
62696;SDS011;48761;42.680;23.312;2023-03-01T08:15:53;8.45;;;4.25;;
62696;SDS011;48761;42.680;23.312;2023-03-01T08:18:19;9.82;;;3.85;;
62696;SDS011;48761;42.680;23.312;2023-03-01T08:20:46;11.40;;;4.20;;
62696;SDS011;48761;42.680;23.312;2023-03-01T08:23:12;6.40;;;3.50;;
62696;SDS011;48761;42.680;23.312;2023-03-01T08:25:39;6.65;;;3.40;;
62696;SDS011;48761;42.680;23.312;2023-03-01T08:28:05;6.03;;;3.42;;
62696;SDS011;48761;42.680;23.312;2023-03-01T08:30:31;7.97;;;3.78;;
62696;SDS011;48761;42.680;23.312;2023-03-01T08:32:57;11.82;;;3.75;;
62696;SDS011;48761;42.680;23.312;2023-03-01T08:35:23;6.97;;;3.63;;
62696;SDS011;48761;42.680;23.312;2023-03-01T08:37:49;9.75;;;4.97;;
62696;SDS011;48761;42.680;23.312;2023-03-01T08:40:15;6.80;;;4.82;;
62696;SDS011;48761;42.680;23.312;2023-03-01T08:42:41;8.55;;;5.10;;
62696;SDS011;48761;42.680;23.312;2023-03-01T08:45:07;8.32;;;5.03;;
62696;SDS011;48761;42.680;23.312;2023-03-01T08:47:34;12.43;;;5.38;;
62696;SDS011;48761;42.680;23.312;2023-03-01T08:50:00;6.68;;;4.38;;
62696;SDS011;48761;42.680;23.312;2023-03-01T08:52:26;6.55;;;4.05;;
62696;SDS011;48761;42.680;23.312;2023-03-01T08:54:53;10.30;;;3.55;;
62696;SDS011;48761;42.680;23.312;2023-03-01T08:57:19;7.05;;;3.78;;
62696;SDS011;48761;42.680;23.312;2023-03-01T08:59:45;8.05;;;3.95;;
62696;SDS011;48761;42.680;23.312;2023-03-01T09:02:12;6.50;;;4.55;;
62696;SDS011;48761;42.680;23.312;2023-03-01T09:04:39;5.43;;;4.10;;
62696;SDS011;48761;42.680;23.312;2023-03-01T09:07:05;4.53;;;3.40;;
62696;SDS011;48761;42.680;23.312;2023-03-01T09:09:32;4.35;;;3.45;;
62696;SDS011;48761;42.680;23.312;2023-03-01T09:11:58;4.55;;;3.25;;
62696;SDS011;48761;42.680;23.312;2023-03-01T09:14:24;3.97;;;3.35;;
62696;SDS011;48761;42.680;23.312;2023-03-01T09:16:50;5.32;;;3.05;;
62696;SDS011;48761;42.680;23.312;2023-03-01T09:19:16;3.83;;;3.00;;
62696;SDS011;48761;42.680;23.312;2023-03-01T09:21:42;5.72;;;3.38;;
62696;SDS011;48761;42.680;23.312;2023-03-01T09:24:12;6.78;;;2.67;;
62696;SDS011;48761;42.680;23.312;2023-03-01T09:26:39;4.78;;;2.60;;
62696;SDS011;48761;42.680;23.312;2023-03-01T09:29:05;7.35;;;3.17;;
62696;SDS011;48761;42.680;23.312;2023-03-01T09:31:31;3.67;;;2.60;;
62696;SDS011;48761;42.680;23.312;2023-03-01T09:33:57;3.10;;;2.40;;
62696;SDS011;48761;42.680;23.312;2023-03-01T09:36:24;5.80;;;2.75;;
62696;SDS011;48761;42.680;23.312;2023-03-01T09:38:50;4.93;;;2.50;;
62696;SDS011;48761;42.680;23.312;2023-03-01T09:43:52;3.13;;;2.15;;
62696;SDS011;48761;42.680;23.312;2023-03-01T09:46:23;2.70;;;2.33;;
62696;SDS011;48761;42.680;23.312;2023-03-01T09:48:52;4.72;;;2.75;;
62696;SDS011;48761;42.680;23.312;2023-03-01T09:51:32;2.85;;;2.45;;
62696;SDS011;48761;42.680;23.312;2023-03-01T09:54:03;4.60;;;2.28;;
62696;SDS011;48761;42.680;23.312;2023-03-01T09:56:36;5.72;;;1.63;;
62696;SDS011;48761;42.680;23.312;2023-03-01T09:59:14;4.10;;;1.80;;
62696;SDS011;48761;42.680;23.312;2023-03-01T10:04:30;6.65;;;2.40;;
62696;SDS011;48761;42.680;23.312;2023-03-01T10:09:40;3.58;;;1.80;;
62696;SDS011;48761;42.680;23.312;2023-03-01T10:12:09;4.20;;;2.05;;
62696;SDS011;48761;42.680;23.312;2023-03-01T10:20:28;6.63;;;2.53;;
62696;SDS011;48761;42.680;23.312;2023-03-01T10:23:08;3.30;;;2.20;;
62696;SDS011;48761;42.680;23.312;2023-03-01T10:31:22;3.17;;;2.17;;
62696;SDS011;48761;42.680;23.312;2023-03-01T10:33:54;6.35;;;2.90;;
62696;SDS011;48761;42.680;23.312;2023-03-01T10:36:22;5.90;;;2.60;;
62696;SDS011;48761;42.680;23.312;2023-03-01T10:41:22;3.85;;;2.33;;
62696;SDS011;48761;42.680;23.312;2023-03-01T10:43:57;4.18;;;2.75;;
62696;SDS011;48761;42.680;23.312;2023-03-01T10:46:28;4.00;;;2.92;;
62696;SDS011;48761;42.680;23.312;2023-03-01T10:51:35;6.45;;;3.35;;
62696;SDS011;48761;42.680;23.312;2023-03-01T10:54:03;7.05;;;2.50;;
62696;SDS011;48761;42.680;23.312;2023-03-01T10:56:30;2.45;;;1.98;;
62696;SDS011;48761;42.680;23.312;2023-03-01T10:59:19;4.15;;;2.20;;
62696;SDS011;48761;42.680;23.312;2023-03-01T11:02:03;3.53;;;2.47;;
62696;SDS011;48761;42.680;23.312;2023-03-01T11:04:56;4.10;;;2.67;;
62696;SDS011;48761;42.680;23.312;2023-03-01T11:07:22;3.63;;;2.25;;
62696;SDS011;48761;42.680;23.312;2023-03-01T11:09:49;7.43;;;2.88;;
62696;SDS011;48761;42.680;23.312;2023-03-01T11:12:16;3.53;;;2.85;;
62696;SDS011;48761;42.680;23.312;2023-03-01T11:14:55;9.30;;;2.85;;
62696;SDS011;48761;42.680;23.312;2023-03-01T11:22:41;5.13;;;2.58;;
62696;SDS011;48761;42.680;23.312;2023-03-01T11:25:20;3.72;;;2.42;;
62696;SDS011;48761;42.680;23.312;2023-03-01T11:27:50;6.32;;;2.50;;
62696;SDS011;48761;42.680;23.312;2023-03-01T11:30:23;5.57;;;3.45;;
62696;SDS011;48761;42.680;23.312;2023-03-01T11:33:11;4.97;;;2.53;;
62696;SDS011;48761;42.680;23.312;2023-03-01T11:38:32;3.97;;;2.30;;
62696;SDS011;48761;42.680;23.312;2023-03-01T11:43:59;3.97;;;2.20;;
62696;SDS011;48761;42.680;23.312;2023-03-01T11:54:35;4.68;;;2.72;;
62696;SDS011;48761;42.680;23.312;2023-03-01T11:57:22;5.35;;;3.17;;
62696;SDS011;48761;42.680;23.312;2023-03-01T12:00:19;5.20;;;3.28;;
62696;SDS011;48761;42.680;23.312;2023-03-01T12:05:50;5.90;;;3.42;;
62696;SDS011;48761;42.680;23.312;2023-03-01T12:13:56;4.10;;;3.10;;
62696;SDS011;48761;42.680;23.312;2023-03-01T12:19:28;6.72;;;3.70;;
62696;SDS011;48761;42.680;23.312;2023-03-01T12:35:52;9.93;;;4.75;;
62696;SDS011;48761;42.680;23.312;2023-03-01T12:46:39;6.68;;;4.82;;
62696;SDS011;48761;42.680;23.312;2023-03-01T12:49:14;8.90;;;5.28;;
62696;SDS011;48761;42.680;23.312;2023-03-01T12:54:44;9.15;;;4.78;;
62696;SDS011;48761;42.680;23.312;2023-03-01T12:57:21;6.85;;;4.75;;
62696;SDS011;48761;42.680;23.312;2023-03-01T13:02:58;7.75;;;4.88;;
62696;SDS011;48761;42.680;23.312;2023-03-01T13:05:52;7.47;;;5.33;;
62696;SDS011;48761;42.680;23.312;2023-03-01T13:11:19;7.05;;;4.75;;
62696;SDS011;48761;42.680;23.312;2023-03-01T13:13:48;5.82;;;4.60;;
62696;SDS011;48761;42.680;23.312;2023-03-01T13:19:16;5.75;;;4.43;;
62696;SDS011;48761;42.680;23.312;2023-03-01T13:21:58;5.95;;;4.25;;
62696;SDS011;48761;42.680;23.312;2023-03-01T13:24:29;6.20;;;4.88;;
62696;SDS011;48761;42.680;23.312;2023-03-01T13:29:47;6.10;;;4.25;;
62696;SDS011;48761;42.680;23.312;2023-03-01T13:32:25;6.75;;;4.43;;
62696;SDS011;48761;42.680;23.312;2023-03-01T13:35:01;6.53;;;4.65;;
62696;SDS011;48761;42.680;23.312;2023-03-01T13:37:29;6.13;;;4.03;;
62696;SDS011;48761;42.680;23.312;2023-03-01T13:45:55;4.78;;;3.53;;
62696;SDS011;48761;42.680;23.312;2023-03-01T13:48:32;7.57;;;3.58;;
62696;SDS011;48761;42.680;23.312;2023-03-01T13:50:59;5.82;;;3.85;;
62696;SDS011;48761;42.680;23.312;2023-03-01T13:53:31;6.97;;;4.05;;
62696;SDS011;48761;42.680;23.312;2023-03-01T13:56:02;6.10;;;4.40;;
62696;SDS011;48761;42.680;23.312;2023-03-01T13:58:45;5.53;;;4.15;;
62696;SDS011;48761;42.680;23.312;2023-03-01T14:03:52;7.03;;;3.50;;
62696;SDS011;48761;42.680;23.312;2023-03-01T14:06:25;6.88;;;4.07;;
62696;SDS011;48761;42.680;23.312;2023-03-01T14:09:03;5.68;;;3.80;;
62696;SDS011;48761;42.680;23.312;2023-03-01T14:16:46;7.28;;;4.72;;
62696;SDS011;48761;42.680;23.312;2023-03-01T14:19:24;8.43;;;4.97;;
62696;SDS011;48761;42.680;23.312;2023-03-01T14:24:40;5.43;;;3.42;;
62696;SDS011;48761;42.680;23.312;2023-03-01T14:27:12;5.80;;;3.53;;
62696;SDS011;48761;42.680;23.312;2023-03-01T14:29:39;6.65;;;3.88;;
62696;SDS011;48761;42.680;23.312;2023-03-01T14:32:15;6.32;;;4.60;;
62696;SDS011;48761;42.680;23.312;2023-03-01T14:34:45;7.88;;;3.85;;
62696;SDS011;48761;42.680;23.312;2023-03-01T14:37:18;6.13;;;4.20;;
62696;SDS011;48761;42.680;23.312;2023-03-01T14:39:50;6.03;;;3.83;;
62696;SDS011;48761;42.680;23.312;2023-03-01T14:42:16;7.03;;;3.35;;
62696;SDS011;48761;42.680;23.312;2023-03-01T14:44:47;5.45;;;3.28;;
62696;SDS011;48761;42.680;23.312;2023-03-01T14:47:19;7.45;;;3.20;;
62696;SDS011;48761;42.680;23.312;2023-03-01T14:49:59;6.25;;;3.25;;
62696;SDS011;48761;42.680;23.312;2023-03-01T14:52:50;9.73;;;3.35;;
62696;SDS011;48761;42.680;23.312;2023-03-01T14:55:26;6.30;;;3.45;;
62696;SDS011;48761;42.680;23.312;2023-03-01T14:57:57;11.32;;;3.08;;
62696;SDS011;48761;42.680;23.312;2023-03-01T15:00:27;8.63;;;3.33;;
62696;SDS011;48761;42.680;23.312;2023-03-01T15:05:30;4.10;;;3.17;;
62696;SDS011;48761;42.680;23.312;2023-03-01T15:07:59;7.30;;;3.15;;
62696;SDS011;48761;42.680;23.312;2023-03-01T15:10:31;6.18;;;3.30;;
62696;SDS011;48761;42.680;23.312;2023-03-01T15:15:40;6.13;;;3.30;;
62696;SDS011;48761;42.680;23.312;2023-03-01T15:18:20;7.00;;;3.35;;
62696;SDS011;48761;42.680;23.312;2023-03-01T15:20:51;8.60;;;3.42;;
62696;SDS011;48761;42.680;23.312;2023-03-01T15:23:23;5.78;;;3.63;;
62696;SDS011;48761;42.680;23.312;2023-03-01T15:25:51;7.55;;;3.75;;
62696;SDS011;48761;42.680;23.312;2023-03-01T15:28:19;9.43;;;3.50;;
62696;SDS011;48761;42.680;23.312;2023-03-01T15:30:45;8.43;;;3.30;;
62696;SDS011;48761;42.680;23.312;2023-03-01T15:33:33;5.78;;;3.38;;
62696;SDS011;48761;42.680;23.312;2023-03-01T15:38:58;5.32;;;2.88;;
62696;SDS011;48761;42.680;23.312;2023-03-01T15:41:27;10.27;;;4.22;;
62696;SDS011;48761;42.680;23.312;2023-03-01T15:43:58;6.47;;;3.38;;
62696;SDS011;48761;42.680;23.312;2023-03-01T15:48:55;6.68;;;4.20;;
62696;SDS011;48761;42.680;23.312;2023-03-01T15:51:35;8.52;;;4.25;;
62696;SDS011;48761;42.680;23.312;2023-03-01T15:54:17;8.55;;;4.38;;
62696;SDS011;48761;42.680;23.312;2023-03-01T15:56:48;6.45;;;3.30;;
62696;SDS011;48761;42.680;23.312;2023-03-01T15:59:14;7.32;;;3.50;;
62696;SDS011;48761;42.680;23.312;2023-03-01T16:01:44;8.65;;;3.95;;
62696;SDS011;48761;42.680;23.312;2023-03-01T16:04:11;10.40;;;3.60;;
62696;SDS011;48761;42.680;23.312;2023-03-01T16:06:38;7.28;;;4.05;;
62696;SDS011;48761;42.680;23.312;2023-03-01T16:09:04;8.40;;;4.10;;
62696;SDS011;48761;42.680;23.312;2023-03-01T16:11:30;8.55;;;4.13;;
62696;SDS011;48761;42.680;23.312;2023-03-01T16:13:56;9.80;;;5.28;;
62696;SDS011;48761;42.680;23.312;2023-03-01T16:16:22;9.98;;;4.57;;
62696;SDS011;48761;42.680;23.312;2023-03-01T16:18:48;6.88;;;4.50;;
62696;SDS011;48761;42.680;23.312;2023-03-01T16:21:16;8.77;;;5.00;;
62696;SDS011;48761;42.680;23.312;2023-03-01T16:23:47;9.65;;;4.85;;
62696;SDS011;48761;42.680;23.312;2023-03-01T16:26:13;6.63;;;4.28;;
62696;SDS011;48761;42.680;23.312;2023-03-01T16:28:40;7.45;;;4.45;;
62696;SDS011;48761;42.680;23.312;2023-03-01T16:31:16;10.48;;;4.90;;
62696;SDS011;48761;42.680;23.312;2023-03-01T16:33:43;7.38;;;4.30;;
62696;SDS011;48761;42.680;23.312;2023-03-01T16:36:10;10.00;;;4.75;;
62696;SDS011;48761;42.680;23.312;2023-03-01T16:38:37;8.35;;;4.43;;
62696;SDS011;48761;42.680;23.312;2023-03-01T16:41:04;10.38;;;4.60;;
62696;SDS011;48761;42.680;23.312;2023-03-01T16:43:31;10.27;;;4.65;;
62696;SDS011;48761;42.680;23.312;2023-03-01T16:45:57;9.20;;;5.03;;
62696;SDS011;48761;42.680;23.312;2023-03-01T16:48:23;7.82;;;5.05;;